sensor_id;sensor_type;location;lat;lon;timestamp;P1;durP1;ratioP1;P2;durP2;ratioP2
19187;SDS011;9726;52.198;8.792;2024-01-16T00:00:52;14.70;;;2.97;;
19187;SDS011;9726;52.198;8.792;2024-01-16T00:03:20;3.00;;;1.93;;
19187;SDS011;9726;52.198;8.792;2024-01-16T00:05:47;14.70;;;2.30;;
19187;SDS011;9726;52.198;8.792;2024-01-16T00:08:15;2.63;;;2.40;;
19187;SDS011;9726;52.198;8.792;2024-01-16T00:10:43;1.43;;;1.30;;
19187;SDS011;9726;52.198;8.792;2024-01-16T00:13:10;10.80;;;1.90;;
19187;SDS011;9726;52.198;8.792;2024-01-16T00:15:38;10.10;;;2.40;;
19187;SDS011;9726;52.198;8.792;2024-01-16T00:18:08;6.53;;;2.30;;
19187;SDS011;9726;52.198;8.792;2024-01-16T00:20:35;5.20;;;1.90;;
19187;SDS011;9726;52.198;8.792;2024-01-16T00:23:03;6.50;;;2.93;;
19187;SDS011;9726;52.198;8.792;2024-01-16T00:25:31;9.37;;;2.90;;
19187;SDS011;9726;52.198;8.792;2024-01-16T00:27:58;11.10;;;3.47;;
19187;SDS011;9726;52.198;8.792;2024-01-16T00:30:26;10.90;;;2.67;;
19187;SDS011;9726;52.198;8.792;2024-01-16T00:32:53;13.03;;;2.67;;
19187;SDS011;9726;52.198;8.792;2024-01-16T00:35:21;7.77;;;2.70;;
19187;SDS011;9726;52.198;8.792;2024-01-16T00:37:48;10.33;;;3.43;;
19187;SDS011;9726;52.198;8.792;2024-01-16T00:40:16;11.60;;;3.13;;
19187;SDS011;9726;52.198;8.792;2024-01-16T00:42:44;14.73;;;3.97;;
19187;SDS011;9726;52.198;8.792;2024-01-16T00:45:11;13.97;;;2.10;;
19187;SDS011;9726;52.198;8.792;2024-01-16T00:47:39;25.77;;;3.10;;
19187;SDS011;9726;52.198;8.792;2024-01-16T00:50:08;10.73;;;1.97;;
19187;SDS011;9726;52.198;8.792;2024-01-16T00:52:35;12.77;;;2.53;;
19187;SDS011;9726;52.198;8.792;2024-01-16T00:55:03;15.33;;;2.10;;
19187;SDS011;9726;52.198;8.792;2024-01-16T00:57:31;15.17;;;2.63;;
19187;SDS011;9726;52.198;8.792;2024-01-16T00:59:58;11.93;;;2.53;;
19187;SDS011;9726;52.198;8.792;2024-01-16T01:02:26;9.83;;;2.37;;
19187;SDS011;9726;52.198;8.792;2024-01-16T01:04:54;8.77;;;2.20;;
19187;SDS011;9726;52.198;8.792;2024-01-16T01:07:21;7.97;;;1.93;;
19187;SDS011;9726;52.198;8.792;2024-01-16T01:09:49;6.80;;;1.40;;
19187;SDS011;9726;52.198;8.792;2024-01-16T01:12:16;9.60;;;2.00;;
19187;SDS011;9726;52.198;8.792;2024-01-16T01:14:44;10.63;;;1.83;;
19187;SDS011;9726;52.198;8.792;2024-01-16T01:17:11;4.70;;;1.43;;
19187;SDS011;9726;52.198;8.792;2024-01-16T01:19:39;10.63;;;2.43;;
19187;SDS011;9726;52.198;8.792;2024-01-16T01:22:06;10.60;;;1.87;;
19187;SDS011;9726;52.198;8.792;2024-01-16T01:24:34;7.30;;;2.00;;
19187;SDS011;9726;52.198;8.792;2024-01-16T01:27:02;4.77;;;1.60;;
19187;SDS011;9726;52.198;8.792;2024-01-16T01:29:30;8.30;;;2.50;;
19187;SDS011;9726;52.198;8.792;2024-01-16T01:31:58;8.53;;;1.93;;
19187;SDS011;9726;52.198;8.792;2024-01-16T01:34:25;11.93;;;1.53;;
19187;SDS011;9726;52.198;8.792;2024-01-16T01:36:53;7.30;;;2.03;;
19187;SDS011;9726;52.198;8.792;2024-01-16T01:39:24;8.10;;;1.57;;
19187;SDS011;9726;52.198;8.792;2024-01-16T01:41:51;9.17;;;2.03;;
19187;SDS011;9726;52.198;8.792;2024-01-16T01:44:19;8.67;;;2.23;;
19187;SDS011;9726;52.198;8.792;2024-01-16T01:46:46;7.57;;;1.63;;
19187;SDS011;9726;52.198;8.792;2024-01-16T01:49:14;10.17;;;2.20;;
19187;SDS011;9726;52.198;8.792;2024-01-16T01:51:43;9.50;;;2.13;;
19187;SDS011;9726;52.198;8.792;2024-01-16T01:54:10;3.67;;;1.83;;
19187;SDS011;9726;52.198;8.792;2024-01-16T01:56:38;5.77;;;1.50;;
19187;SDS011;9726;52.198;8.792;2024-01-16T01:59:06;6.07;;;2.37;;
19187;SDS011;9726;52.198;8.792;2024-01-16T02:01:34;8.03;;;1.93;;
19187;SDS011;9726;52.198;8.792;2024-01-16T02:04:02;11.40;;;2.90;;
19187;SDS011;9726;52.198;8.792;2024-01-16T02:06:29;10.03;;;2.50;;
19187;SDS011;9726;52.198;8.792;2024-01-16T02:08:57;11.60;;;2.37;;
19187;SDS011;9726;52.198;8.792;2024-01-16T02:11:24;9.13;;;2.63;;
19187;SDS011;9726;52.198;8.792;2024-01-16T02:13:52;5.23;;;1.90;;
19187;SDS011;9726;52.198;8.792;2024-01-16T02:16:22;14.73;;;2.23;;
19187;SDS011;9726;52.198;8.792;2024-01-16T02:18:51;2.63;;;1.50;;
19187;SDS011;9726;52.198;8.792;2024-01-16T02:21:22;10.80;;;2.57;;
19187;SDS011;9726;52.198;8.792;2024-01-16T02:23:50;11.80;;;2.70;;
19187;SDS011;9726;52.198;8.792;2024-01-16T02:26:18;14.63;;;3.33;;
19187;SDS011;9726;52.198;8.792;2024-01-16T02:28:46;13.57;;;3.13;;
19187;SDS011;9726;52.198;8.792;2024-01-16T02:31:13;9.73;;;2.77;;
19187;SDS011;9726;52.198;8.792;2024-01-16T02:33:41;8.87;;;2.57;;
19187;SDS011;9726;52.198;8.792;2024-01-16T02:36:09;8.27;;;2.80;;
19187;SDS011;9726;52.198;8.792;2024-01-16T02:38:36;7.10;;;2.67;;
19187;SDS011;9726;52.198;8.792;2024-01-16T02:41:04;14.13;;;3.07;;
19187;SDS011;9726;52.198;8.792;2024-01-16T02:43:32;8.83;;;2.47;;
19187;SDS011;9726;52.198;8.792;2024-01-16T02:46:00;8.20;;;2.60;;
19187;SDS011;9726;52.198;8.792;2024-01-16T02:48:27;20.07;;;3.40;;
19187;SDS011;9726;52.198;8.792;2024-01-16T02:50:55;9.47;;;3.03;;
19187;SDS011;9726;52.198;8.792;2024-01-16T02:53:22;4.97;;;2.20;;
19187;SDS011;9726;52.198;8.792;2024-01-16T02:55:52;8.07;;;3.23;;
19187;SDS011;9726;52.198;8.792;2024-01-16T02:58:20;8.73;;;3.20;;
19187;SDS011;9726;52.198;8.792;2024-01-16T03:00:47;22.13;;;2.50;;
19187;SDS011;9726;52.198;8.792;2024-01-16T03:03:15;14.83;;;2.97;;
19187;SDS011;9726;52.198;8.792;2024-01-16T03:05:42;16.30;;;3.17;;
19187;SDS011;9726;52.198;8.792;2024-01-16T03:08:10;10.93;;;2.87;;
19187;SDS011;9726;52.198;8.792;2024-01-16T03:10:38;20.17;;;5.27;;
19187;SDS011;9726;52.198;8.792;2024-01-16T03:13:05;5.77;;;3.20;;
19187;SDS011;9726;52.198;8.792;2024-01-16T03:15:33;9.33;;;3.27;;
19187;SDS011;9726;52.198;8.792;2024-01-16T03:18:01;27.73;;;4.17;;
19187;SDS011;9726;52.198;8.792;2024-01-16T03:20:29;24.63;;;4.33;;
19187;SDS011;9726;52.198;8.792;2024-01-16T03:22:56;13.40;;;4.00;;
19187;SDS011;9726;52.198;8.792;2024-01-16T03:25:25;15.33;;;4.77;;
19187;SDS011;9726;52.198;8.792;2024-01-16T03:27:53;15.57;;;3.13;;
19187;SDS011;9726;52.198;8.792;2024-01-16T03:30:20;10.93;;;3.33;;
19187;SDS011;9726;52.198;8.792;2024-01-16T03:32:48;15.50;;;3.33;;
19187;SDS011;9726;52.198;8.792;2024-01-16T03:35:16;14.70;;;3.93;;
19187;SDS011;9726;52.198;8.792;2024-01-16T03:37:44;22.57;;;3.93;;
19187;SDS011;9726;52.198;8.792;2024-01-16T03:40:11;11.03;;;2.97;;
19187;SDS011;9726;52.198;8.792;2024-01-16T03:42:39;8.00;;;2.93;;
19187;SDS011;9726;52.198;8.792;2024-01-16T03:45:07;10.53;;;3.20;;
19187;SDS011;9726;52.198;8.792;2024-01-16T03:47:35;15.90;;;3.80;;
19187;SDS011;9726;52.198;8.792;2024-01-16T03:50:02;9.13;;;2.83;;
19187;SDS011;9726;52.198;8.792;2024-01-16T03:52:30;17.27;;;3.17;;
19187;SDS011;9726;52.198;8.792;2024-01-16T03:54:57;12.53;;;3.63;;
19187;SDS011;9726;52.198;8.792;2024-01-16T03:57:25;8.20;;;4.00;;
19187;SDS011;9726;52.198;8.792;2024-01-16T03:59:52;14.83;;;4.10;;
19187;SDS011;9726;52.198;8.792;2024-01-16T04:02:19;16.47;;;3.73;;
19187;SDS011;9726;52.198;8.792;2024-01-16T04:04:47;13.50;;;3.80;;
19187;SDS011;9726;52.198;8.792;2024-01-16T04:07:15;9.17;;;3.97;;
19187;SDS011;9726;52.198;8.792;2024-01-16T04:09:43;19.40;;;3.60;;
19187;SDS011;9726;52.198;8.792;2024-01-16T04:12:10;20.70;;;3.77;;
19187;SDS011;9726;52.198;8.792;2024-01-16T04:14:37;16.33;;;3.90;;
19187;SDS011;9726;52.198;8.792;2024-01-16T04:17:05;23.43;;;4.27;;
19187;SDS011;9726;52.198;8.792;2024-01-16T04:19:33;10.60;;;3.53;;
19187;SDS011;9726;52.198;8.792;2024-01-16T04:22:01;13.73;;;3.97;;
19187;SDS011;9726;52.198;8.792;2024-01-16T04:24:28;15.60;;;4.43;;
19187;SDS011;9726;52.198;8.792;2024-01-16T04:26:56;10.03;;;2.67;;
19187;SDS011;9726;52.198;8.792;2024-01-16T04:29:23;18.37;;;3.77;;
19187;SDS011;9726;52.198;8.792;2024-01-16T04:31:51;14.10;;;4.43;;
19187;SDS011;9726;52.198;8.792;2024-01-16T04:34:19;19.93;;;4.43;;
19187;SDS011;9726;52.198;8.792;2024-01-16T04:36:47;12.97;;;4.10;;
19187;SDS011;9726;52.198;8.792;2024-01-16T04:39:15;14.03;;;4.23;;
19187;SDS011;9726;52.198;8.792;2024-01-16T04:41:42;19.13;;;3.20;;
19187;SDS011;9726;52.198;8.792;2024-01-16T04:44:10;8.30;;;3.70;;
19187;SDS011;9726;52.198;8.792;2024-01-16T04:46:38;12.00;;;3.33;;
19187;SDS011;9726;52.198;8.792;2024-01-16T04:49:06;9.03;;;3.83;;
19187;SDS011;9726;52.198;8.792;2024-01-16T04:51:33;14.57;;;4.00;;
19187;SDS011;9726;52.198;8.792;2024-01-16T04:54:01;12.57;;;4.47;;
19187;SDS011;9726;52.198;8.792;2024-01-16T04:56:28;11.17;;;5.47;;
19187;SDS011;9726;52.198;8.792;2024-01-16T04:58:56;17.30;;;5.17;;
19187;SDS011;9726;52.198;8.792;2024-01-16T05:01:23;18.13;;;5.13;;
19187;SDS011;9726;52.198;8.792;2024-01-16T05:03:51;18.30;;;5.03;;
19187;SDS011;9726;52.198;8.792;2024-01-16T05:06:19;13.77;;;6.27;;
19187;SDS011;9726;52.198;8.792;2024-01-16T05:08:46;11.37;;;4.83;;
19187;SDS011;9726;52.198;8.792;2024-01-16T05:11:16;15.10;;;5.17;;
19187;SDS011;9726;52.198;8.792;2024-01-16T05:13:43;15.67;;;6.47;;
19187;SDS011;9726;52.198;8.792;2024-01-16T05:16:11;14.73;;;5.07;;
19187;SDS011;9726;52.198;8.792;2024-01-16T05:18:41;20.27;;;6.33;;
19187;SDS011;9726;52.198;8.792;2024-01-16T05:21:10;26.00;;;7.17;;
19187;SDS011;9726;52.198;8.792;2024-01-16T05:23:37;16.10;;;4.67;;
19187;SDS011;9726;52.198;8.792;2024-01-16T05:26:05;12.40;;;6.20;;
19187;SDS011;9726;52.198;8.792;2024-01-16T05:28:32;18.40;;;5.77;;
19187;SDS011;9726;52.198;8.792;2024-01-16T05:31:00;13.17;;;5.90;;
19187;SDS011;9726;52.198;8.792;2024-01-16T05:33:27;21.37;;;6.60;;
19187;SDS011;9726;52.198;8.792;2024-01-16T05:35:57;41.00;;;8.27;;
19187;SDS011;9726;52.198;8.792;2024-01-16T05:38:24;10.97;;;7.53;;
19187;SDS011;9726;52.198;8.792;2024-01-16T05:40:52;19.77;;;5.87;;
19187;SDS011;9726;52.198;8.792;2024-01-16T05:43:19;20.30;;;5.40;;
19187;SDS011;9726;52.198;8.792;2024-01-16T05:45:48;18.27;;;5.20;;
19187;SDS011;9726;52.198;8.792;2024-01-16T05:48:16;20.03;;;5.23;;
19187;SDS011;9726;52.198;8.792;2024-01-16T05:50:46;24.77;;;5.67;;
19187;SDS011;9726;52.198;8.792;2024-01-16T05:53:13;18.53;;;5.30;;
19187;SDS011;9726;52.198;8.792;2024-01-16T05:55:41;23.63;;;5.60;;
19187;SDS011;9726;52.198;8.792;2024-01-16T05:58:08;19.27;;;7.03;;
19187;SDS011;9726;52.198;8.792;2024-01-16T06:00:40;21.90;;;5.60;;
19187;SDS011;9726;52.198;8.792;2024-01-16T06:03:08;17.53;;;6.20;;
19187;SDS011;9726;52.198;8.792;2024-01-16T06:05:35;25.27;;;6.33;;
19187;SDS011;9726;52.198;8.792;2024-01-16T06:08:03;8.83;;;4.73;;
19187;SDS011;9726;52.198;8.792;2024-01-16T06:10:30;21.90;;;6.77;;
19187;SDS011;9726;52.198;8.792;2024-01-16T06:12:58;10.33;;;5.33;;
19187;SDS011;9726;52.198;8.792;2024-01-16T06:15:25;24.90;;;6.43;;
19187;SDS011;9726;52.198;8.792;2024-01-16T06:17:53;16.00;;;6.20;;
19187;SDS011;9726;52.198;8.792;2024-01-16T06:20:21;16.60;;;7.37;;
19187;SDS011;9726;52.198;8.792;2024-01-16T06:22:50;13.63;;;6.37;;
19187;SDS011;9726;52.198;8.792;2024-01-16T06:25:18;20.77;;;7.23;;
19187;SDS011;9726;52.198;8.792;2024-01-16T06:27:45;18.07;;;6.00;;
19187;SDS011;9726;52.198;8.792;2024-01-16T06:30:13;20.87;;;6.33;;
19187;SDS011;9726;52.198;8.792;2024-01-16T06:32:41;21.23;;;6.37;;
19187;SDS011;9726;52.198;8.792;2024-01-16T06:35:09;13.10;;;5.97;;
19187;SDS011;9726;52.198;8.792;2024-01-16T06:37:36;18.37;;;6.47;;
19187;SDS011;9726;52.198;8.792;2024-01-16T06:40:04;11.23;;;5.73;;
19187;SDS011;9726;52.198;8.792;2024-01-16T06:42:33;15.33;;;6.57;;
19187;SDS011;9726;52.198;8.792;2024-01-16T06:45:11;10.13;;;4.90;;
19187;SDS011;9726;52.198;8.792;2024-01-16T06:47:39;18.90;;;6.10;;
19187;SDS011;9726;52.198;8.792;2024-01-16T06:50:08;22.40;;;6.83;;
19187;SDS011;9726;52.198;8.792;2024-01-16T06:52:36;18.43;;;7.93;;
19187;SDS011;9726;52.198;8.792;2024-01-16T06:55:03;11.90;;;5.77;;
19187;SDS011;9726;52.198;8.792;2024-01-16T06:57:31;18.27;;;6.80;;
19187;SDS011;9726;52.198;8.792;2024-01-16T06:59:58;22.30;;;6.13;;
19187;SDS011;9726;52.198;8.792;2024-01-16T07:02:26;22.73;;;8.07;;
19187;SDS011;9726;52.198;8.792;2024-01-16T07:04:54;23.63;;;7.77;;
19187;SDS011;9726;52.198;8.792;2024-01-16T07:07:25;27.23;;;7.07;;
19187;SDS011;9726;52.198;8.792;2024-01-16T07:09:53;26.37;;;7.43;;
19187;SDS011;9726;52.198;8.792;2024-01-16T07:12:20;24.77;;;8.60;;
19187;SDS011;9726;52.198;8.792;2024-01-16T07:14:48;25.03;;;7.60;;
19187;SDS011;9726;52.198;8.792;2024-01-16T07:17:15;22.87;;;7.90;;
19187;SDS011;9726;52.198;8.792;2024-01-16T07:19:43;18.53;;;7.13;;
19187;SDS011;9726;52.198;8.792;2024-01-16T07:22:10;22.87;;;6.47;;
19187;SDS011;9726;52.198;8.792;2024-01-16T07:24:40;20.13;;;7.27;;
19187;SDS011;9726;52.198;8.792;2024-01-16T07:27:08;21.93;;;8.63;;
19187;SDS011;9726;52.198;8.792;2024-01-16T07:29:35;15.43;;;8.30;;
19187;SDS011;9726;52.198;8.792;2024-01-16T07:32:03;20.37;;;7.60;;
19187;SDS011;9726;52.198;8.792;2024-01-16T07:34:30;20.17;;;7.97;;
19187;SDS011;9726;52.198;8.792;2024-01-16T07:36:58;14.87;;;7.40;;
19187;SDS011;9726;52.198;8.792;2024-01-16T07:39:25;18.57;;;7.93;;
19187;SDS011;9726;52.198;8.792;2024-01-16T07:41:53;25.47;;;9.23;;
19187;SDS011;9726;52.198;8.792;2024-01-16T07:44:21;21.77;;;9.20;;
19187;SDS011;9726;52.198;8.792;2024-01-16T07:46:48;24.50;;;10.57;;
19187;SDS011;9726;52.198;8.792;2024-01-16T07:49:16;24.70;;;7.60;;
19187;SDS011;9726;52.198;8.792;2024-01-16T07:51:43;21.37;;;8.00;;
19187;SDS011;9726;52.198;8.792;2024-01-16T07:54:11;21.97;;;8.70;;
19187;SDS011;9726;52.198;8.792;2024-01-16T07:56:40;22.03;;;8.57;;
19187;SDS011;9726;52.198;8.792;2024-01-16T07:59:07;28.80;;;9.30;;
19187;SDS011;9726;52.198;8.792;2024-01-16T08:01:35;18.63;;;8.20;;
19187;SDS011;9726;52.198;8.792;2024-01-16T08:04:02;24.73;;;8.93;;
19187;SDS011;9726;52.198;8.792;2024-01-16T08:06:31;15.27;;;7.50;;
19187;SDS011;9726;52.198;8.792;2024-01-16T08:08:58;24.70;;;8.70;;
19187;SDS011;9726;52.198;8.792;2024-01-16T08:11:26;20.23;;;7.50;;
19187;SDS011;9726;52.198;8.792;2024-01-16T08:13:54;16.33;;;6.87;;
19187;SDS011;9726;52.198;8.792;2024-01-16T08:16:22;22.97;;;8.50;;
19187;SDS011;9726;52.198;8.792;2024-01-16T08:18:49;28.00;;;8.30;;
19187;SDS011;9726;52.198;8.792;2024-01-16T08:21:17;19.30;;;8.10;;
19187;SDS011;9726;52.198;8.792;2024-01-16T08:23:45;20.90;;;7.67;;
19187;SDS011;9726;52.198;8.792;2024-01-16T08:26:13;17.37;;;7.83;;
19187;SDS011;9726;52.198;8.792;2024-01-16T08:28:40;25.43;;;8.37;;
19187;SDS011;9726;52.198;8.792;2024-01-16T08:31:08;17.87;;;8.10;;
19187;SDS011;9726;52.198;8.792;2024-01-16T08:33:36;19.07;;;6.50;;
19187;SDS011;9726;52.198;8.792;2024-01-16T08:36:12;28.27;;;7.13;;
19187;SDS011;9726;52.198;8.792;2024-01-16T08:38:40;25.90;;;8.73;;
19187;SDS011;9726;52.198;8.792;2024-01-16T08:41:08;23.40;;;8.87;;
19187;SDS011;9726;52.198;8.792;2024-01-16T08:43:35;19.63;;;8.17;;
19187;SDS011;9726;52.198;8.792;2024-01-16T08:46:04;25.23;;;9.23;;
19187;SDS011;9726;52.198;8.792;2024-01-16T08:48:39;18.03;;;8.87;;
19187;SDS011;9726;52.198;8.792;2024-01-16T08:51:10;23.03;;;9.00;;
19187;SDS011;9726;52.198;8.792;2024-01-16T08:53:38;12.77;;;5.97;;
19187;SDS011;9726;52.198;8.792;2024-01-16T08:56:06;13.33;;;6.63;;
19187;SDS011;9726;52.198;8.792;2024-01-16T08:58:35;21.53;;;8.83;;
19187;SDS011;9726;52.198;8.792;2024-01-16T09:01:04;13.07;;;5.73;;
19187;SDS011;9726;52.198;8.792;2024-01-16T09:03:33;27.70;;;8.07;;
19187;SDS011;9726;52.198;8.792;2024-01-16T09:06:00;24.40;;;7.07;;
19187;SDS011;9726;52.198;8.792;2024-01-16T09:08:29;18.37;;;8.13;;
19187;SDS011;9726;52.198;8.792;2024-01-16T09:10:57;19.10;;;8.63;;
19187;SDS011;9726;52.198;8.792;2024-01-16T09:13:29;19.00;;;7.37;;
19187;SDS011;9726;52.198;8.792;2024-01-16T09:15:57;16.53;;;8.10;;
19187;SDS011;9726;52.198;8.792;2024-01-16T09:18:24;21.17;;;8.03;;
19187;SDS011;9726;52.198;8.792;2024-01-16T09:20:52;20.27;;;7.57;;
19187;SDS011;9726;52.198;8.792;2024-01-16T09:23:21;19.57;;;7.23;;
19187;SDS011;9726;52.198;8.792;2024-01-16T09:25:49;24.40;;;8.43;;
19187;SDS011;9726;52.198;8.792;2024-01-16T09:28:16;16.10;;;6.53;;
19187;SDS011;9726;52.198;8.792;2024-01-16T09:30:44;20.00;;;6.63;;
19187;SDS011;9726;52.198;8.792;2024-01-16T09:33:12;19.17;;;8.40;;
19187;SDS011;9726;52.198;8.792;2024-01-16T09:35:40;16.30;;;6.33;;
19187;SDS011;9726;52.198;8.792;2024-01-16T09:38:08;19.60;;;7.07;;
19187;SDS011;9726;52.198;8.792;2024-01-16T09:40:36;15.30;;;5.83;;
19187;SDS011;9726;52.198;8.792;2024-01-16T09:43:03;16.67;;;6.03;;
19187;SDS011;9726;52.198;8.792;2024-01-16T09:45:31;19.23;;;8.47;;
19187;SDS011;9726;52.198;8.792;2024-01-16T09:48:00;15.47;;;5.60;;
19187;SDS011;9726;52.198;8.792;2024-01-16T09:50:29;11.10;;;6.77;;
19187;SDS011;9726;52.198;8.792;2024-01-16T09:52:56;11.30;;;4.83;;
19187;SDS011;9726;52.198;8.792;2024-01-16T09:55:25;17.63;;;5.57;;
19187;SDS011;9726;52.198;8.792;2024-01-16T09:57:53;15.87;;;6.50;;
19187;SDS011;9726;52.198;8.792;2024-01-16T10:00:20;22.23;;;6.67;;
19187;SDS011;9726;52.198;8.792;2024-01-16T10:02:48;13.87;;;6.03;;
19187;SDS011;9726;52.198;8.792;2024-01-16T10:05:17;11.57;;;5.10;;
19187;SDS011;9726;52.198;8.792;2024-01-16T10:07:45;20.20;;;7.33;;
19187;SDS011;9726;52.198;8.792;2024-01-16T10:10:12;13.00;;;5.97;;
19187;SDS011;9726;52.198;8.792;2024-01-16T10:12:49;11.60;;;5.03;;
19187;SDS011;9726;52.198;8.792;2024-01-16T10:15:17;10.87;;;3.73;;
19187;SDS011;9726;52.198;8.792;2024-01-16T10:17:47;15.77;;;5.33;;
19187;SDS011;9726;52.198;8.792;2024-01-16T10:20:15;10.33;;;4.30;;
19187;SDS011;9726;52.198;8.792;2024-01-16T10:22:54;22.97;;;5.23;;
19187;SDS011;9726;52.198;8.792;2024-01-16T10:25:22;16.90;;;6.10;;
19187;SDS011;9726;52.198;8.792;2024-01-16T10:27:59;23.83;;;6.43;;
19187;SDS011;9726;52.198;8.792;2024-01-16T10:30:29;19.00;;;5.57;;
19187;SDS011;9726;52.198;8.792;2024-01-16T10:33:01;13.30;;;4.13;;
19187;SDS011;9726;52.198;8.792;2024-01-16T10:35:39;20.10;;;5.70;;
19187;SDS011;9726;52.198;8.792;2024-01-16T10:38:07;15.50;;;5.57;;
19187;SDS011;9726;52.198;8.792;2024-01-16T10:40:35;12.23;;;5.30;;
19187;SDS011;9726;52.198;8.792;2024-01-16T10:43:05;14.73;;;5.93;;
19187;SDS011;9726;52.198;8.792;2024-01-16T10:45:33;14.67;;;6.43;;
19187;SDS011;9726;52.198;8.792;2024-01-16T10:48:07;8.93;;;5.63;;
19187;SDS011;9726;52.198;8.792;2024-01-16T10:50:36;19.37;;;5.40;;
19187;SDS011;9726;52.198;8.792;2024-01-16T10:53:05;14.03;;;4.80;;
19187;SDS011;9726;52.198;8.792;2024-01-16T10:55:48;12.37;;;6.30;;
19187;SDS011;9726;52.198;8.792;2024-01-16T10:58:23;20.83;;;7.03;;
19187;SDS011;9726;52.198;8.792;2024-01-16T11:00:52;16.13;;;6.87;;
19187;SDS011;9726;52.198;8.792;2024-01-16T11:03:38;16.60;;;7.17;;
19187;SDS011;9726;52.198;8.792;2024-01-16T11:06:07;14.63;;;8.10;;
19187;SDS011;9726;52.198;8.792;2024-01-16T11:08:36;19.43;;;8.37;;
19187;SDS011;9726;52.198;8.792;2024-01-16T11:11:04;17.13;;;7.93;;
19187;SDS011;9726;52.198;8.792;2024-01-16T11:13:32;26.47;;;8.70;;
19187;SDS011;9726;52.198;8.792;2024-01-16T11:16:03;27.97;;;7.23;;
19187;SDS011;9726;52.198;8.792;2024-01-16T11:18:32;21.03;;;8.90;;
19187;SDS011;9726;52.198;8.792;2024-01-16T11:21:00;21.47;;;7.63;;
19187;SDS011;9726;52.198;8.792;2024-01-16T11:23:34;18.30;;;8.47;;
19187;SDS011;9726;52.198;8.792;2024-01-16T11:26:24;31.23;;;9.57;;
19187;SDS011;9726;52.198;8.792;2024-01-16T11:28:50;21.90;;;8.03;;
19187;SDS011;9726;52.198;8.792;2024-01-16T11:31:27;16.57;;;8.33;;
19187;SDS011;9726;52.198;8.792;2024-01-16T11:33:56;25.53;;;11.67;;
19187;SDS011;9726;52.198;8.792;2024-01-16T11:36:42;21.07;;;9.97;;
19187;SDS011;9726;52.198;8.792;2024-01-16T11:39:17;31.00;;;9.93;;
19187;SDS011;9726;52.198;8.792;2024-01-16T11:47:06;28.33;;;11.70;;
19187;SDS011;9726;52.198;8.792;2024-01-16T11:49:35;20.83;;;11.43;;
19187;SDS011;9726;52.198;8.792;2024-01-16T11:52:04;20.47;;;12.37;;
19187;SDS011;9726;52.198;8.792;2024-01-16T11:54:32;26.80;;;12.23;;
19187;SDS011;9726;52.198;8.792;2024-01-16T11:57:48;24.77;;;13.43;;
19187;SDS011;9726;52.198;8.792;2024-01-16T12:00:02;23.23;;;12.90;;
19187;SDS011;9726;52.198;8.792;2024-01-16T12:02:51;31.33;;;12.07;;
19187;SDS011;9726;52.198;8.792;2024-01-16T12:05:20;31.37;;;13.03;;
19187;SDS011;9726;52.198;8.792;2024-01-16T12:07:48;24.27;;;11.83;;
19187;SDS011;9726;52.198;8.792;2024-01-16T12:10:17;24.20;;;13.57;;
19187;SDS011;9726;52.198;8.792;2024-01-16T12:12:45;27.10;;;13.93;;
19187;SDS011;9726;52.198;8.792;2024-01-16T12:15:19;18.83;;;11.37;;
19187;SDS011;9726;52.198;8.792;2024-01-16T12:17:57;31.20;;;12.70;;
19187;SDS011;9726;52.198;8.792;2024-01-16T12:20:26;31.97;;;13.07;;
19187;SDS011;9726;52.198;8.792;2024-01-16T12:22:55;24.17;;;11.33;;
19187;SDS011;9726;52.198;8.792;2024-01-16T12:25:23;22.67;;;10.00;;
19187;SDS011;9726;52.198;8.792;2024-01-16T12:28:11;19.30;;;9.90;;
19187;SDS011;9726;52.198;8.792;2024-01-16T12:30:57;29.07;;;9.43;;
19187;SDS011;9726;52.198;8.792;2024-01-16T12:33:25;26.63;;;10.60;;
19187;SDS011;9726;52.198;8.792;2024-01-16T12:36:03;17.60;;;8.97;;
19187;SDS011;9726;52.198;8.792;2024-01-16T12:38:32;20.37;;;8.67;;
19187;SDS011;9726;52.198;8.792;2024-01-16T12:41:00;18.50;;;9.73;;
19187;SDS011;9726;52.198;8.792;2024-01-16T12:43:29;15.40;;;9.80;;
19187;SDS011;9726;52.198;8.792;2024-01-16T12:45:58;24.40;;;10.23;;
19187;SDS011;9726;52.198;8.792;2024-01-16T12:48:25;26.47;;;11.13;;
19187;SDS011;9726;52.198;8.792;2024-01-16T12:51:00;23.27;;;11.30;;
19187;SDS011;9726;52.198;8.792;2024-01-16T12:53:30;23.10;;;10.67;;
19187;SDS011;9726;52.198;8.792;2024-01-16T12:55:59;27.10;;;8.83;;
19187;SDS011;9726;52.198;8.792;2024-01-16T12:58:32;22.37;;;10.43;;
19187;SDS011;9726;52.198;8.792;2024-01-16T13:04:04;28.43;;;9.13;;
19187;SDS011;9726;52.198;8.792;2024-01-16T13:06:31;30.53;;;8.97;;
19187;SDS011;9726;52.198;8.792;2024-01-16T13:09:09;18.20;;;8.83;;
19187;SDS011;9726;52.198;8.792;2024-01-16T13:11:51;23.43;;;9.93;;
19187;SDS011;9726;52.198;8.792;2024-01-16T13:14:19;22.87;;;7.50;;
19187;SDS011;9726;52.198;8.792;2024-01-16T13:16:48;15.07;;;8.43;;
19187;SDS011;9726;52.198;8.792;2024-01-16T13:19:19;16.67;;;7.80;;
19187;SDS011;9726;52.198;8.792;2024-01-16T13:21:48;14.00;;;7.23;;
19187;SDS011;9726;52.198;8.792;2024-01-16T13:24:15;21.20;;;8.27;;
19187;SDS011;9726;52.198;8.792;2024-01-16T13:26:46;15.50;;;7.30;;
19187;SDS011;9726;52.198;8.792;2024-01-16T13:29:14;15.43;;;7.27;;
19187;SDS011;9726;52.198;8.792;2024-01-16T13:31:42;22.57;;;7.53;;
19187;SDS011;9726;52.198;8.792;2024-01-16T13:34:10;16.10;;;7.40;;
19187;SDS011;9726;52.198;8.792;2024-01-16T13:36:38;21.23;;;7.80;;
19187;SDS011;9726;52.198;8.792;2024-01-16T13:39:29;17.73;;;7.37;;
19187;SDS011;9726;52.198;8.792;2024-01-16T13:42:02;26.57;;;7.60;;
19187;SDS011;9726;52.198;8.792;2024-01-16T13:44:33;20.13;;;8.33;;
19187;SDS011;9726;52.198;8.792;2024-01-16T13:47:00;17.70;;;6.83;;
19187;SDS011;9726;52.198;8.792;2024-01-16T13:49:37;21.50;;;6.97;;
19187;SDS011;9726;52.198;8.792;2024-01-16T13:52:05;14.37;;;5.60;;
19187;SDS011;9726;52.198;8.792;2024-01-16T13:54:32;21.40;;;7.47;;
19187;SDS011;9726;52.198;8.792;2024-01-16T13:57:03;20.33;;;8.03;;
19187;SDS011;9726;52.198;8.792;2024-01-16T13:59:35;28.83;;;8.40;;
19187;SDS011;9726;52.198;8.792;2024-01-16T14:02:03;16.17;;;5.33;;
19187;SDS011;9726;52.198;8.792;2024-01-16T14:04:35;14.67;;;6.47;;
19187;SDS011;9726;52.198;8.792;2024-01-16T14:07:03;26.27;;;7.30;;
19187;SDS011;9726;52.198;8.792;2024-01-16T14:09:39;19.63;;;6.90;;
19187;SDS011;9726;52.198;8.792;2024-01-16T14:12:12;14.20;;;6.33;;
19187;SDS011;9726;52.198;8.792;2024-01-16T14:14:40;16.10;;;5.60;;
19187;SDS011;9726;52.198;8.792;2024-01-16T14:17:09;26.63;;;7.57;;
19187;SDS011;9726;52.198;8.792;2024-01-16T14:19:36;21.90;;;6.90;;
19187;SDS011;9726;52.198;8.792;2024-01-16T14:22:05;22.53;;;7.50;;
19187;SDS011;9726;52.198;8.792;2024-01-16T14:24:32;14.93;;;6.57;;
19187;SDS011;9726;52.198;8.792;2024-01-16T14:27:00;28.43;;;6.80;;
19187;SDS011;9726;52.198;8.792;2024-01-16T14:29:28;26.50;;;8.83;;
19187;SDS011;9726;52.198;8.792;2024-01-16T14:31:56;20.80;;;7.73;;
19187;SDS011;9726;52.198;8.792;2024-01-16T14:34:25;33.63;;;9.20;;
19187;SDS011;9726;52.198;8.792;2024-01-16T14:36:53;28.07;;;9.23;;
19187;SDS011;9726;52.198;8.792;2024-01-16T14:39:21;24.43;;;9.33;;
19187;SDS011;9726;52.198;8.792;2024-01-16T14:41:53;23.93;;;8.80;;
19187;SDS011;9726;52.198;8.792;2024-01-16T14:44:21;30.83;;;9.17;;
19187;SDS011;9726;52.198;8.792;2024-01-16T14:46:48;29.77;;;8.33;;
19187;SDS011;9726;52.198;8.792;2024-01-16T14:49:19;17.10;;;7.73;;
19187;SDS011;9726;52.198;8.792;2024-01-16T14:51:48;20.30;;;7.47;;
19187;SDS011;9726;52.198;8.792;2024-01-16T14:54:16;23.60;;;7.23;;
19187;SDS011;9726;52.198;8.792;2024-01-16T14:56:44;18.60;;;7.63;;
19187;SDS011;9726;52.198;8.792;2024-01-16T14:59:12;25.07;;;6.47;;
19187;SDS011;9726;52.198;8.792;2024-01-16T15:01:42;27.17;;;6.27;;
19187;SDS011;9726;52.198;8.792;2024-01-16T15:04:11;24.67;;;6.13;;
19187;SDS011;9726;52.198;8.792;2024-01-16T15:06:40;20.57;;;6.03;;